createdAt,value
2017-09-01T00:00:57.207Z,49.60
2017-09-01T00:03:24.861Z,49.80
2017-09-01T00:05:52.403Z,50.40
2017-09-01T00:08:19.986Z,50.40
2017-09-01T00:10:48.109Z,50.50
2017-09-01T00:13:16.246Z,50.80
2017-09-01T00:15:44.078Z,50.50
2017-09-01T00:18:11.917Z,50.70
2017-09-01T00:20:39.480Z,50.80
2017-09-01T00:23:07.023Z,50.20
2017-09-01T00:25:34.593Z,50.30
2017-09-01T00:28:02.337Z,50.30
2017-09-01T00:30:29.819Z,51.30
2017-09-01T00:32:57.310Z,51.90
2017-09-01T00:35:24.806Z,51.90
2017-09-01T00:37:52.295Z,51.90
2017-09-01T00:40:19.791Z,51.80
2017-09-01T00:42:47.319Z,52.10
2017-09-01T00:45:14.802Z,52.20
2017-09-01T00:47:42.282Z,52.10
2017-09-01T00:50:09.782Z,52.20
2017-09-01T00:52:37.266Z,52.20
2017-09-01T00:55:04.751Z,52.40
2017-09-01T00:57:32.263Z,52.70
2017-09-01T00:59:59.754Z,52.70
2017-09-01T01:02:27.240Z,53.00
2017-09-01T01:04:54.750Z,53.00
2017-09-01T01:07:22.234Z,53.80
2017-09-01T01:09:49.733Z,53.50
2017-09-01T01:12:17.238Z,53.40
2017-09-01T01:14:44.723Z,52.70
2017-09-01T01:17:12.211Z,52.70
2017-09-01T01:19:40.483Z,52.20
2017-09-01T01:22:07.975Z,52.10
2017-09-01T01:24:35.474Z,51.70
2017-09-01T01:27:02.978Z,51.70
2017-09-01T01:29:30.475Z,51.90
2017-09-01T01:31:58.144Z,52.00
2017-09-01T01:34:25.648Z,52.00
2017-09-01T01:36:53.131Z,51.90
2017-09-01T01:39:20.624Z,51.90
2017-09-01T01:41:48.150Z,51.90
2017-09-01T01:44:15.631Z,52.10
2017-09-01T01:46:43.123Z,52.10
2017-09-01T01:49:10.634Z,51.30
2017-09-01T01:51:38.123Z,52.20
2017-09-01T01:54:05.617Z,52.10
2017-09-01T01:56:33.147Z,52.30
2017-09-01T01:59:00.617Z,52.30
2017-09-01T02:01:28.107Z,52.90
2017-09-01T02:03:55.605Z,53.60
2017-09-01T02:06:23.096Z,53.20
2017-09-01T02:08:50.588Z,53.30
2017-09-01T02:11:18.134Z,54.80
2017-09-01T02:13:45.615Z,54.40
2017-09-01T02:16:13.102Z,56.40
2017-09-01T02:18:40.604Z,55.90
2017-09-01T02:21:08.085Z,57.20
2017-09-01T02:23:35.577Z,58.20
2017-09-01T02:26:03.104Z,58.20
2017-09-01T02:28:30.593Z,60.20
2017-09-01T02:30:58.078Z,62.20
2017-09-01T02:33:25.593Z,62.80
2017-09-01T02:35:53.078Z,65.80
2017-09-01T02:38:20.563Z,65.10
2017-09-01T02:40:48.058Z,64.90
2017-09-01T02:43:15.530Z,64.60
2017-09-01T02:45:43.011Z,64.40
2017-09-01T02:48:10.512Z,64.80
2017-09-01T02:50:37.989Z,67.60
2017-09-01T02:53:05.470Z,63.90
2017-09-01T02:55:33.023Z,63.80
2017-09-01T02:58:00.506Z,65.30
2017-09-01T03:00:27.998Z,67.30
2017-09-01T03:02:55.502Z,67.00
2017-09-01T03:05:22.994Z,64.80
2017-09-01T03:07:50.466Z,65.70
2017-09-01T03:10:17.983Z,65.30
2017-09-01T03:12:45.462Z,65.30
2017-09-01T03:15:12.939Z,64.70
2017-09-01T03:17:40.463Z,67.10
2017-09-01T03:20:07.945Z,67.80
2017-09-01T03:22:35.440Z,68.70
2017-09-01T03:25:02.961Z,68.80
2017-09-01T03:27:30.441Z,70.40
2017-09-01T03:29:57.934Z,71.40
2017-09-01T03:32:25.434Z,71.00
2017-09-01T03:34:52.925Z,71.70
2017-09-01T03:37:20.416Z,70.80
2017-09-01T03:39:47.922Z,71.90
2017-09-01T03:42:15.398Z,69.30
2017-09-01T03:44:42.877Z,68.80
2017-09-01T03:47:10.379Z,69.80
2017-09-01T03:49:37.866Z,69.30
2017-09-01T03:52:05.354Z,68.10
2017-09-01T03:54:32.853Z,68.20
2017-09-01T03:57:00.338Z,68.10
2017-09-01T03:59:27.810Z,68.50
2017-09-01T04:01:55.314Z,69.30
2017-09-01T04:04:22.789Z,68.70
2017-09-01T04:06:50.284Z,68.50
2017-09-01T04:09:17.795Z,69.30
2017-09-01T04:11:45.285Z,68.50
2017-09-01T04:14:12.766Z,67.30
2017-09-01T04:16:40.268Z,67.60
2017-09-01T04:19:07.747Z,67.50
2017-09-01T04:21:35.231Z,67.10
2017-09-01T04:24:02.734Z,67.00
2017-09-01T04:26:30.212Z,66.70
2017-09-01T04:28:57.690Z,67.10
2017-09-01T04:31:25.191Z,67.80
2017-09-01T04:33:52.678Z,68.20
2017-09-01T04:36:20.169Z,69.60
2017-09-01T04:38:47.665Z,68.50
2017-09-01T04:41:15.140Z,68.60
2017-09-01T04:43:42.628Z,69.50
2017-09-01T04:46:10.137Z,68.80
2017-09-01T04:48:37.628Z,68.70
2017-09-01T04:51:05.119Z,68.80
2017-09-01T04:53:32.628Z,70.50
2017-09-01T04:56:00.200Z,70.30
2017-09-01T04:58:27.719Z,70.00
2017-09-01T05:00:55.205Z,71.80
2017-09-01T05:03:22.689Z,74.20
2017-09-01T05:05:50.183Z,75.30
2017-09-01T05:08:17.685Z,76.00
2017-09-01T05:10:45.170Z,75.20
2017-09-01T05:13:12.638Z,76.50
2017-09-01T05:15:40.139Z,78.00
2017-09-01T05:18:07.622Z,78.80
2017-09-01T05:20:35.947Z,78.80
2017-09-01T05:23:03.454Z,79.70
2017-09-01T05:25:30.934Z,79.80
2017-09-01T05:27:58.420Z,80.40
2017-09-01T05:30:25.931Z,81.40
2017-09-01T05:32:53.410Z,82.10
2017-09-01T05:35:20.963Z,82.80
2017-09-01T05:37:48.457Z,83.20
2017-09-01T05:40:15.944Z,82.30
2017-09-01T05:42:43.422Z,83.00
2017-09-01T05:45:10.926Z,83.40
2017-09-01T05:47:38.415Z,84.50
2017-09-01T05:50:05.907Z,83.60
2017-09-01T05:52:33.426Z,84.60
2017-09-01T05:55:00.907Z,84.50
2017-09-01T05:57:28.410Z,85.10
2017-09-01T05:59:55.914Z,85.60
2017-09-01T06:02:23.394Z,86.60
2017-09-01T06:04:50.883Z,86.90
2017-09-01T06:07:18.388Z,87.60
2017-09-01T06:09:45.862Z,87.30
2017-09-01T06:12:13.351Z,87.60
2017-09-01T06:14:40.865Z,87.80
2017-09-01T06:17:08.351Z,87.30
2017-09-01T06:19:35.834Z,86.80
2017-09-01T06:22:03.342Z,86.80
2017-09-01T06:24:30.817Z,86.20
2017-09-01T06:26:58.294Z,86.90
2017-09-01T06:29:25.800Z,86.70
2017-09-01T06:31:53.331Z,87.00
2017-09-01T06:34:20.825Z,87.30
2017-09-01T06:36:48.330Z,87.40
2017-09-01T06:39:15.808Z,87.50
2017-09-01T06:41:43.286Z,87.50
2017-09-01T06:44:10.783Z,86.50
2017-09-01T06:46:38.266Z,86.30
2017-09-01T06:49:05.741Z,85.60
2017-09-01T06:51:33.237Z,84.90
2017-09-01T06:54:00.714Z,83.60
2017-09-01T06:56:28.334Z,83.40
2017-09-01T06:58:55.848Z,82.90
2017-09-01T07:01:23.339Z,82.90
2017-09-01T07:03:50.817Z,82.10
2017-09-01T07:06:18.310Z,81.10
2017-09-01T07:08:45.785Z,79.70
2017-09-01T07:11:13.266Z,79.30
2017-09-01T07:13:40.762Z,78.10
2017-09-01T07:16:08.239Z,78.10
2017-09-01T07:18:35.727Z,78.00
2017-09-01T07:21:03.218Z,77.60
2017-09-01T07:23:30.704Z,78.80
2017-09-01T07:25:58.185Z,79.80
2017-09-01T07:28:25.704Z,79.20
2017-09-01T07:30:53.196Z,79.30
2017-09-01T07:33:20.682Z,79.00
2017-09-01T07:35:48.174Z,79.20
2017-09-01T07:38:15.667Z,78.80
2017-09-01T07:40:43.149Z,79.30
2017-09-01T07:43:10.666Z,79.50
2017-09-01T07:45:38.151Z,81.40
2017-09-01T07:48:05.635Z,81.50
2017-09-01T07:50:33.138Z,79.60
2017-09-01T07:53:00.621Z,81.60
2017-09-01T07:55:28.115Z,79.80
2017-09-01T07:57:55.620Z,81.00
2017-09-01T08:00:23.107Z,80.90
2017-09-01T08:02:50.592Z,81.10
2017-09-01T08:05:18.091Z,81.20
2017-09-01T08:07:45.618Z,82.60
2017-09-01T08:10:13.093Z,81.00
2017-09-01T08:12:40.599Z,81.20
2017-09-01T08:15:08.088Z,81.60
2017-09-01T08:17:35.595Z,80.90
2017-09-01T08:20:03.089Z,81.50
2017-09-01T08:22:30.618Z,80.70
2017-09-01T08:24:58.098Z,80.70
2017-09-01T08:27:25.594Z,80.30
2017-09-01T08:29:53.074Z,80.10
2017-09-01T08:32:20.573Z,79.60
2017-09-01T08:34:48.090Z,79.10
2017-09-01T08:37:15.570Z,78.50
2017-09-01T08:39:43.051Z,78.90
2017-09-01T08:42:10.550Z,79.00
2017-09-01T08:44:38.034Z,78.20
2017-09-01T08:47:05.512Z,77.50
2017-09-01T08:49:33.015Z,76.10
2017-09-01T08:52:00.502Z,76.90
2017-09-01T08:54:27.985Z,76.50
2017-09-01T08:56:55.486Z,75.50
2017-09-01T08:59:22.975Z,75.50
2017-09-01T09:01:50.460Z,75.10
2017-09-01T09:04:17.974Z,75.00
2017-09-01T09:06:45.465Z,74.30
2017-09-01T09:09:12.942Z,73.80
2017-09-01T09:11:40.429Z,72.60
2017-09-01T09:14:07.916Z,71.10
2017-09-01T09:16:35.401Z,71.20
2017-09-01T09:19:02.902Z,71.10
2017-09-01T09:21:30.383Z,71.00
2017-09-01T09:23:57.874Z,71.20
2017-09-01T09:26:25.375Z,70.20
2017-09-01T09:28:52.891Z,69.20
2017-09-01T09:31:20.374Z,69.20
2017-09-01T09:33:47.894Z,68.50
2017-09-01T09:36:15.383Z,68.10
2017-09-01T09:38:42.879Z,68.50
2017-09-01T09:41:10.398Z,69.90
2017-09-01T09:43:37.890Z,69.20
2017-09-01T09:46:05.378Z,67.00
2017-09-01T09:48:32.881Z,66.40
2017-09-01T09:51:00.382Z,64.80
2017-09-01T09:53:27.922Z,63.50
2017-09-01T09:55:55.417Z,63.30
2017-09-01T09:58:22.903Z,62.50
2017-09-01T10:00:50.381Z,61.70
2017-09-01T10:03:17.873Z,61.30
2017-09-01T10:05:45.347Z,60.00
2017-09-01T10:08:12.827Z,63.60
2017-09-01T10:10:40.317Z,60.90
2017-09-01T10:13:07.793Z,59.40
2017-09-01T10:15:35.281Z,60.50
2017-09-01T10:18:02.783Z,59.30
2017-09-01T10:20:30.278Z,56.00
2017-09-01T10:22:57.763Z,56.20
2017-09-01T10:25:25.265Z,54.10
2017-09-01T10:27:52.751Z,54.40
2017-09-01T10:30:20.221Z,53.10
2017-09-01T10:32:47.722Z,52.40
2017-09-01T10:35:15.195Z,51.40
2017-09-01T10:37:42.679Z,52.50
2017-09-01T10:40:10.169Z,51.90
2017-09-01T10:42:37.649Z,52.00
2017-09-01T10:45:05.129Z,52.00
2017-09-01T10:47:44.488Z,51.00
2017-09-01T10:50:23.787Z,51.20
2017-09-01T10:53:03.246Z,51.10
2017-09-01T10:55:42.586Z,50.70
2017-09-01T10:58:16.706Z,50.30
2017-09-01T11:00:44.202Z,50.80
2017-09-01T11:03:11.681Z,49.30
2017-09-01T11:05:39.182Z,49.70
2017-09-01T11:08:06.671Z,50.60
2017-09-01T11:10:34.162Z,48.30
2017-09-01T11:13:01.684Z,47.80
2017-09-01T11:15:29.178Z,48.10
2017-09-01T11:17:56.665Z,47.50
2017-09-01T11:20:29.795Z,48.20
2017-09-01T11:23:02.963Z,48.50
2017-09-01T11:25:30.457Z,48.00
2017-09-01T11:27:57.951Z,48.30
2017-09-01T11:30:25.434Z,48.70
2017-09-01T11:32:52.933Z,47.40
2017-09-01T11:35:20.414Z,45.60
2017-09-01T11:37:47.911Z,46.90
2017-09-01T11:40:15.425Z,47.30
2017-09-01T11:42:42.919Z,47.70
2017-09-01T11:45:10.414Z,48.20
2017-09-01T11:47:37.914Z,46.60
2017-09-01T11:50:05.399Z,45.30
2017-09-01T11:52:33.457Z,46.50
2017-09-01T11:55:00.958Z,47.10
2017-09-01T11:57:28.444Z,46.40
2017-09-01T11:59:55.921Z,46.40
2017-09-01T12:02:23.426Z,45.50
2017-09-01T12:04:50.919Z,45.60
2017-09-01T12:07:18.410Z,45.70
2017-09-01T12:09:46.108Z,40.70
2017-09-01T12:12:13.595Z,44.40
2017-09-01T12:14:41.088Z,43.60
2017-09-01T12:17:08.604Z,44.50
2017-09-01T12:19:36.086Z,43.30
2017-09-01T12:22:03.566Z,45.50
2017-09-01T12:24:31.068Z,42.50
2017-09-01T12:26:58.568Z,43.40
2017-09-01T12:29:26.076Z,39.20
2017-09-01T12:31:53.587Z,43.90
2017-09-01T12:34:21.106Z,44.90
2017-09-01T12:36:48.593Z,45.30
2017-09-01T12:39:16.158Z,45.70
2017-09-01T12:41:43.644Z,45.30
2017-09-01T12:44:11.126Z,42.90
2017-09-01T12:46:38.630Z,43.20
2017-09-01T12:49:06.122Z,43.80
2017-09-01T12:51:33.606Z,43.90
2017-09-01T12:54:01.106Z,42.90
2017-09-01T12:56:28.594Z,43.80
2017-09-01T12:58:56.176Z,43.80
2017-09-01T13:01:23.692Z,44.10
2017-09-01T13:03:51.183Z,44.70
2017-09-01T13:06:18.674Z,43.10
2017-09-01T13:08:46.172Z,40.10
2017-09-01T13:11:13.663Z,40.10
2017-09-01T13:13:41.141Z,41.00
2017-09-01T13:16:08.637Z,40.20
2017-09-01T13:18:36.114Z,40.10
2017-09-01T13:21:03.599Z,39.00
2017-09-01T13:23:31.126Z,38.90
2017-09-01T13:25:58.607Z,38.60
2017-09-01T13:28:26.098Z,37.60
2017-09-01T13:30:53.603Z,38.90
2017-09-01T13:33:21.090Z,39.20
2017-09-01T13:35:48.579Z,39.30
2017-09-01T13:38:16.077Z,38.70
2017-09-01T13:40:43.566Z,38.60
2017-09-01T13:43:11.037Z,40.10
2017-09-01T13:45:38.546Z,39.00
2017-09-01T13:48:06.032Z,38.10
2017-09-01T13:50:33.523Z,39.60
2017-09-01T13:53:01.022Z,40.50
2017-09-01T13:55:28.506Z,40.90
2017-09-01T13:57:55.983Z,37.60
2017-09-01T14:00:23.482Z,38.90
2017-09-01T14:02:50.969Z,38.90
2017-09-01T14:05:18.465Z,37.70
2017-09-01T14:07:45.961Z,37.60
2017-09-01T14:10:13.446Z,36.10
2017-09-01T14:12:40.921Z,36.50
2017-09-01T14:15:08.419Z,38.10
2017-09-01T14:17:35.905Z,35.90
2017-09-01T14:20:03.423Z,35.10
2017-09-01T14:22:30.913Z,35.80
2017-09-01T14:24:58.395Z,36.70
2017-09-01T14:27:25.885Z,36.40
2017-09-01T14:29:53.386Z,36.50
2017-09-01T14:32:20.857Z,35.80
2017-09-01T14:34:48.348Z,35.40
2017-09-01T14:37:15.845Z,34.80
2017-09-01T14:39:43.330Z,35.30
2017-09-01T14:42:10.805Z,36.10
2017-09-01T14:44:38.303Z,35.70
2017-09-01T14:47:05.788Z,36.90
2017-09-01T14:49:33.258Z,37.20
2017-09-01T14:52:00.763Z,38.10
2017-09-01T14:54:28.239Z,38.90
2017-09-01T14:56:55.714Z,38.90
2017-09-01T14:59:23.202Z,39.60
2017-09-01T15:01:50.725Z,38.50
2017-09-01T15:04:18.229Z,38.50
2017-09-01T15:06:45.847Z,39.10
2017-09-01T15:09:13.353Z,38.90
2017-09-01T15:11:40.866Z,38.60
2017-09-01T15:14:08.375Z,37.80
2017-09-01T15:16:35.858Z,36.80
2017-09-01T15:19:03.333Z,36.00
2017-09-01T15:21:30.843Z,35.80
2017-09-01T15:23:58.325Z,34.60
2017-09-01T15:26:25.809Z,34.60
2017-09-01T15:28:53.301Z,34.60
2017-09-01T15:31:20.784Z,35.10
2017-09-01T15:33:48.272Z,35.20
2017-09-01T15:36:15.766Z,34.80
2017-09-01T15:38:43.246Z,35.00
2017-09-01T15:41:10.730Z,35.60
2017-09-01T15:43:38.238Z,35.60
2017-09-01T15:46:05.723Z,35.10
2017-09-01T15:48:33.205Z,34.40
2017-09-01T15:51:00.704Z,36.10
2017-09-01T15:53:28.189Z,35.40
2017-09-01T15:55:55.686Z,35.70
2017-09-01T15:58:23.194Z,36.00
2017-09-01T16:00:50.674Z,34.90
2017-09-01T16:03:18.155Z,35.40
2017-09-01T16:05:45.651Z,35.60
2017-09-01T16:08:13.131Z,35.40
2017-09-01T16:10:40.620Z,35.50
2017-09-01T16:13:08.126Z,35.70
2017-09-01T16:15:35.610Z,35.90
2017-09-01T16:18:03.104Z,36.10
2017-09-01T16:20:30.612Z,36.40
2017-09-01T16:22:58.097Z,36.30
2017-09-01T16:25:25.581Z,37.30
2017-09-01T16:27:53.077Z,36.90
2017-09-01T16:30:20.569Z,36.60
2017-09-01T16:32:48.058Z,37.20
2017-09-01T16:35:15.561Z,37.30
2017-09-01T16:37:43.047Z,37.20
2017-09-01T16:40:10.532Z,37.40
2017-09-01T16:42:38.043Z,38.00
2017-09-01T16:45:05.531Z,38.40
2017-09-01T16:47:33.016Z,38.40
2017-09-01T16:50:00.526Z,38.40
2017-09-01T16:52:28.011Z,38.70
2017-09-01T16:54:55.486Z,38.30
2017-09-01T16:57:22.983Z,37.90
2017-09-01T16:59:50.473Z,38.60
2017-09-01T17:02:17.955Z,37.20
2017-09-01T17:04:45.472Z,36.50
2017-09-01T17:07:12.953Z,34.40
2017-09-01T17:09:40.426Z,33.60
2017-09-01T17:12:07.952Z,34.30
2017-09-01T17:14:35.449Z,34.70
2017-09-01T17:17:02.947Z,34.90
2017-09-01T17:19:30.469Z,35.20
2017-09-01T17:21:57.968Z,35.00
2017-09-01T17:24:25.469Z,34.90
2017-09-01T17:26:52.970Z,33.90
2017-09-01T17:29:20.460Z,36.10
2017-09-01T17:31:47.929Z,34.20
2017-09-01T17:34:15.463Z,34.70
2017-09-01T17:36:42.951Z,34.70
2017-09-01T17:39:10.447Z,34.60
2017-09-01T17:41:37.961Z,34.20
2017-09-01T17:44:05.458Z,34.10
2017-09-01T17:46:32.929Z,34.40
2017-09-01T17:49:00.434Z,34.60
2017-09-01T17:51:27.918Z,34.70
2017-09-01T17:53:55.394Z,34.40
2017-09-01T17:56:22.894Z,34.20
2017-09-01T17:58:50.375Z,34.10
2017-09-01T18:01:17.872Z,33.60
2017-09-01T18:03:45.385Z,33.60
2017-09-01T18:06:12.870Z,34.00
2017-09-01T18:08:40.351Z,33.50
2017-09-01T18:11:07.847Z,33.50
2017-09-01T18:13:35.335Z,33.30
2017-09-01T18:16:02.834Z,33.80
2017-09-01T18:18:30.331Z,33.20
2017-09-01T18:20:57.832Z,32.80
2017-09-01T18:23:25.303Z,33.40
2017-09-01T18:25:52.821Z,33.00
2017-09-01T18:28:20.307Z,33.40
2017-09-01T18:30:47.782Z,33.70
2017-09-01T18:33:15.285Z,33.40
2017-09-01T18:35:42.771Z,35.50
2017-09-01T18:38:10.255Z,33.50
2017-09-01T18:40:37.772Z,34.10
2017-09-01T18:43:05.288Z,33.90
2017-09-01T18:45:32.778Z,34.90
2017-09-01T18:48:00.275Z,33.60
2017-09-01T18:50:27.753Z,34.50
2017-09-01T18:52:55.258Z,34.30
2017-09-01T18:55:22.772Z,34.60
2017-09-01T18:57:50.256Z,34.30
2017-09-01T19:00:17.743Z,34.30
2017-09-01T19:02:45.256Z,35.00
2017-09-01T19:05:12.763Z,35.00
2017-09-01T19:07:40.362Z,35.40
2017-09-01T19:10:07.860Z,34.90
2017-09-01T19:12:35.430Z,35.40
2017-09-01T19:15:02.915Z,35.60
2017-09-01T19:17:30.406Z,35.50
2017-09-01T19:19:57.894Z,35.10
2017-09-01T19:22:25.378Z,35.20
2017-09-01T19:24:52.882Z,34.90
2017-09-01T19:27:20.374Z,34.80
2017-09-01T19:29:47.859Z,35.90
2017-09-01T19:32:15.362Z,35.20
2017-09-01T19:34:44.426Z,35.30
2017-09-01T19:37:13.355Z,34.90
2017-09-01T19:39:41.211Z,34.80
2017-09-01T19:42:09.630Z,35.30
2017-09-01T19:44:38.437Z,34.70
2017-09-01T19:47:07.017Z,34.00
2017-09-01T19:49:35.371Z,34.40
2017-09-01T19:52:05.621Z,33.00
2017-09-01T19:54:34.693Z,32.90
2017-09-01T19:57:03.547Z,31.90
2017-09-01T19:59:31.494Z,32.00
2017-09-01T20:02:00.999Z,31.00
2017-09-01T20:04:28.756Z,30.90
2017-09-01T20:06:56.602Z,30.90
2017-09-01T20:09:26.779Z,33.00
2017-09-01T20:11:55.715Z,34.60
2017-09-01T20:14:24.142Z,34.50
2017-09-01T20:16:52.718Z,34.60
2017-09-01T20:19:20.587Z,33.40
2017-09-01T20:21:51.356Z,33.00
2017-09-01T20:24:20.009Z,33.10
2017-09-01T20:26:49.172Z,33.20
2017-09-01T20:29:18.907Z,33.70
2017-09-01T20:31:47.450Z,34.60
2017-09-01T20:34:14.945Z,34.60
2017-09-01T20:36:42.424Z,35.20
2017-09-01T20:39:09.927Z,35.20
2017-09-01T20:41:37.398Z,35.70
2017-09-01T20:44:04.894Z,35.70
2017-09-01T20:46:32.410Z,36.40
2017-09-01T20:48:59.900Z,36.80
2017-09-01T20:51:27.382Z,38.20
2017-09-01T20:53:54.883Z,37.80
2017-09-01T20:56:22.362Z,38.30
2017-09-01T20:58:49.849Z,38.20
2017-09-01T21:01:17.356Z,38.50
2017-09-01T21:03:44.839Z,38.30
2017-09-01T21:06:12.321Z,37.80
2017-09-01T21:08:39.818Z,37.60
2017-09-01T21:11:07.308Z,37.70
2017-09-01T21:13:34.800Z,37.80
2017-09-01T21:16:02.305Z,38.40
2017-09-01T21:18:29.799Z,38.40
2017-09-01T21:20:57.293Z,38.20
2017-09-01T21:23:24.809Z,38.10
2017-09-01T21:25:52.296Z,38.00
2017-09-01T21:28:19.792Z,37.60
2017-09-01T21:30:47.308Z,37.50
2017-09-01T21:33:14.791Z,37.10
2017-09-01T21:35:42.279Z,37.50
2017-09-01T21:38:09.773Z,37.70
2017-09-01T21:40:37.248Z,38.20
2017-09-01T21:43:04.739Z,37.60
2017-09-01T21:45:32.241Z,38.20
2017-09-01T21:47:59.722Z,38.80
2017-09-01T21:50:27.206Z,38.80
2017-09-01T21:52:54.715Z,38.70
2017-09-01T21:55:22.189Z,38.70
2017-09-01T21:57:49.675Z,39.00
2017-09-01T22:00:17.178Z,38.70
2017-09-01T22:02:44.658Z,39.10
2017-09-01T22:05:12.145Z,38.90
2017-09-01T22:07:39.641Z,38.60
2017-09-01T22:10:07.118Z,39.10
2017-09-01T22:12:34.603Z,38.90
2017-09-01T22:15:02.105Z,39.40
2017-09-01T22:17:29.586Z,39.50
2017-09-01T22:19:57.059Z,39.70
2017-09-01T22:22:24.554Z,40.00
2017-09-01T22:24:52.047Z,40.10
2017-09-01T22:27:19.530Z,40.80
2017-09-01T22:29:47.027Z,41.10
2017-09-01T22:32:14.506Z,41.00
2017-09-01T22:34:41.997Z,42.00
2017-09-01T22:37:09.489Z,42.80
2017-09-01T22:39:36.968Z,42.90
2017-09-01T22:42:04.453Z,42.90
2017-09-01T22:44:31.954Z,43.10
2017-09-01T22:46:59.430Z,43.00
2017-09-01T22:49:26.916Z,42.90
2017-09-01T22:51:54.506Z,43.10
2017-09-01T22:54:24.954Z,43.00
2017-09-01T22:56:53.193Z,43.20
2017-09-01T22:59:20.687Z,43.20
2017-09-01T23:01:48.179Z,43.30
2017-09-01T23:04:15.676Z,42.90
2017-09-01T23:06:43.195Z,43.10
2017-09-01T23:09:10.687Z,43.50
2017-09-01T23:11:38.194Z,43.60
2017-09-01T23:14:05.714Z,43.50
2017-09-01T23:16:33.199Z,43.40
2017-09-01T23:19:00.683Z,43.20
2017-09-01T23:21:28.180Z,43.50
2017-09-01T23:23:55.659Z,43.20
2017-09-01T23:26:23.131Z,43.50
2017-09-01T23:28:50.644Z,43.30
2017-09-01T23:31:18.130Z,43.40
2017-09-01T23:33:49.528Z,43.80
2017-09-01T23:36:17.749Z,43.60
2017-09-01T23:38:45.547Z,43.90
2017-09-01T23:41:13.674Z,43.40
2017-09-01T23:43:41.839Z,43.60
2017-09-01T23:46:09.705Z,43.30
2017-09-01T23:48:37.375Z,43.50
2017-09-01T23:51:05.340Z,43.40
2017-09-01T23:53:33.172Z,43.60
2017-09-01T23:56:00.655Z,43.60
2017-09-01T23:58:28.130Z,43.50
